sensor_id;sensor_type;location;lat;lon;timestamp;P1;durP1;ratioP1;P2;durP2;ratioP2
68250;SDS011;55066;51.560;4.642;2023-07-29T00:00:46;4.50;;;1.93;;
68250;SDS011;55066;51.560;4.642;2023-07-29T00:03:13;8.40;;;2.13;;
68250;SDS011;55066;51.560;4.642;2023-07-29T00:05:38;4.78;;;1.70;;
68250;SDS011;55066;51.560;4.642;2023-07-29T00:08:04;5.40;;;2.20;;
68250;SDS011;55066;51.560;4.642;2023-07-29T00:10:35;4.80;;;1.70;;
68250;SDS011;55066;51.560;4.642;2023-07-29T00:13:02;3.42;;;1.80;;
68250;SDS011;55066;51.560;4.642;2023-07-29T00:15:28;3.75;;;1.55;;
68250;SDS011;55066;51.560;4.642;2023-07-29T00:17:53;4.03;;;1.70;;
68250;SDS011;55066;51.560;4.642;2023-07-29T00:20:19;3.37;;;1.50;;
68250;SDS011;55066;51.560;4.642;2023-07-29T00:22:44;3.80;;;1.53;;
68250;SDS011;55066;51.560;4.642;2023-07-29T00:25:10;4.33;;;1.60;;
68250;SDS011;55066;51.560;4.642;2023-07-29T00:27:35;2.93;;;1.63;;
68250;SDS011;55066;51.560;4.642;2023-07-29T00:30:01;3.03;;;1.47;;
68250;SDS011;55066;51.560;4.642;2023-07-29T00:32:29;3.30;;;1.40;;
68250;SDS011;55066;51.560;4.642;2023-07-29T00:34:56;3.63;;;1.60;;
68250;SDS011;55066;51.560;4.642;2023-07-29T00:37:21;4.03;;;1.70;;
68250;SDS011;55066;51.560;4.642;2023-07-29T00:39:47;3.40;;;1.40;;
68250;SDS011;55066;51.560;4.642;2023-07-29T00:42:12;5.37;;;1.50;;
68250;SDS011;55066;51.560;4.642;2023-07-29T00:44:38;2.63;;;1.43;;
68250;SDS011;55066;51.560;4.642;2023-07-29T00:47:03;4.13;;;1.50;;
68250;SDS011;55066;51.560;4.642;2023-07-29T00:49:30;3.70;;;1.73;;
68250;SDS011;55066;51.560;4.642;2023-07-29T00:51:57;3.47;;;1.63;;
68250;SDS011;55066;51.560;4.642;2023-07-29T00:54:24;5.03;;;1.73;;
68250;SDS011;55066;51.560;4.642;2023-07-29T00:56:49;3.07;;;1.50;;
68250;SDS011;55066;51.560;4.642;2023-07-29T00:59:15;3.13;;;1.48;;
68250;SDS011;55066;51.560;4.642;2023-07-29T01:01:41;3.23;;;1.43;;
68250;SDS011;55066;51.560;4.642;2023-07-29T01:04:07;3.08;;;1.33;;
68250;SDS011;55066;51.560;4.642;2023-07-29T01:09:30;4.18;;;1.40;;
68250;SDS011;55066;51.560;4.642;2023-07-29T01:14:42;3.30;;;1.33;;
68250;SDS011;55066;51.560;4.642;2023-07-29T01:17:17;3.10;;;1.30;;
68250;SDS011;55066;51.560;4.642;2023-07-29T01:20:01;3.78;;;1.30;;
68250;SDS011;55066;51.560;4.642;2023-07-29T01:22:31;4.65;;;1.30;;
68250;SDS011;55066;51.560;4.642;2023-07-29T01:24:59;2.75;;;1.30;;
68250;SDS011;55066;51.560;4.642;2023-07-29T01:27:25;4.70;;;1.50;;
68250;SDS011;55066;51.560;4.642;2023-07-29T01:29:51;2.92;;;1.48;;
68250;SDS011;55066;51.560;4.642;2023-07-29T01:32:19;3.63;;;1.45;;
68250;SDS011;55066;51.560;4.642;2023-07-29T01:34:53;3.25;;;1.10;;
68250;SDS011;55066;51.560;4.642;2023-07-29T01:37:26;3.03;;;1.47;;
68250;SDS011;55066;51.560;4.642;2023-07-29T01:39:56;5.95;;;1.50;;
68250;SDS011;55066;51.560;4.642;2023-07-29T01:42:24;2.80;;;1.30;;
68250;SDS011;55066;51.560;4.642;2023-07-29T01:44:50;3.42;;;1.33;;
68250;SDS011;55066;51.560;4.642;2023-07-29T01:47:16;3.00;;;1.40;;
68250;SDS011;55066;51.560;4.642;2023-07-29T01:49:41;5.80;;;1.42;;
68250;SDS011;55066;51.560;4.642;2023-07-29T01:52:07;2.83;;;1.27;;
68250;SDS011;55066;51.560;4.642;2023-07-29T01:54:32;2.50;;;1.20;;
68250;SDS011;55066;51.560;4.642;2023-07-29T01:56:58;3.80;;;1.30;;
68250;SDS011;55066;51.560;4.642;2023-07-29T01:59:23;3.00;;;1.27;;
68250;SDS011;55066;51.560;4.642;2023-07-29T02:01:49;3.47;;;1.30;;
68250;SDS011;55066;51.560;4.642;2023-07-29T02:04:15;2.70;;;1.25;;
68250;SDS011;55066;51.560;4.642;2023-07-29T02:06:40;3.83;;;1.20;;
68250;SDS011;55066;51.560;4.642;2023-07-29T02:09:06;4.60;;;1.50;;
68250;SDS011;55066;51.560;4.642;2023-07-29T02:11:31;2.60;;;1.20;;
68250;SDS011;55066;51.560;4.642;2023-07-29T02:13:57;3.43;;;1.30;;
68250;SDS011;55066;51.560;4.642;2023-07-29T02:16:23;4.53;;;1.40;;
68250;SDS011;55066;51.560;4.642;2023-07-29T02:18:48;3.40;;;1.47;;
68250;SDS011;55066;51.560;4.642;2023-07-29T02:21:15;3.53;;;1.42;;
68250;SDS011;55066;51.560;4.642;2023-07-29T02:23:41;4.00;;;1.70;;
68250;SDS011;55066;51.560;4.642;2023-07-29T02:26:06;5.43;;;2.00;;
68250;SDS011;55066;51.560;4.642;2023-07-29T02:28:32;4.77;;;1.70;;
68250;SDS011;55066;51.560;4.642;2023-07-29T02:31:12;5.27;;;2.00;;
68250;SDS011;55066;51.560;4.642;2023-07-29T02:33:42;5.10;;;1.83;;
68250;SDS011;55066;51.560;4.642;2023-07-29T02:36:08;4.75;;;1.90;;
68250;SDS011;55066;51.560;4.642;2023-07-29T02:38:34;4.67;;;1.80;;
68250;SDS011;55066;51.560;4.642;2023-07-29T02:40:59;5.27;;;2.10;;
68250;SDS011;55066;51.560;4.642;2023-07-29T02:43:25;4.10;;;2.10;;
68250;SDS011;55066;51.560;4.642;2023-07-29T02:45:50;5.00;;;2.10;;
68250;SDS011;55066;51.560;4.642;2023-07-29T02:48:16;4.27;;;2.10;;
68250;SDS011;55066;51.560;4.642;2023-07-29T02:50:41;4.57;;;2.20;;
68250;SDS011;55066;51.560;4.642;2023-07-29T02:53:08;5.13;;;2.28;;
68250;SDS011;55066;51.560;4.642;2023-07-29T02:55:33;6.85;;;2.78;;
68250;SDS011;55066;51.560;4.642;2023-07-29T02:57:59;8.53;;;2.70;;
68250;SDS011;55066;51.560;4.642;2023-07-29T03:00:24;5.20;;;2.40;;
68250;SDS011;55066;51.560;4.642;2023-07-29T03:02:51;5.57;;;2.53;;
68250;SDS011;55066;51.560;4.642;2023-07-29T03:05:16;9.55;;;2.60;;
68250;SDS011;55066;51.560;4.642;2023-07-29T03:07:42;5.77;;;2.67;;
68250;SDS011;55066;51.560;4.642;2023-07-29T03:10:08;5.20;;;2.53;;
68250;SDS011;55066;51.560;4.642;2023-07-29T03:12:36;7.50;;;2.95;;
68250;SDS011;55066;51.560;4.642;2023-07-29T03:15:01;4.43;;;2.10;;
68250;SDS011;55066;51.560;4.642;2023-07-29T03:17:27;5.07;;;2.58;;
68250;SDS011;55066;51.560;4.642;2023-07-29T03:19:52;5.63;;;2.43;;
68250;SDS011;55066;51.560;4.642;2023-07-29T03:22:18;6.33;;;2.37;;
68250;SDS011;55066;51.560;4.642;2023-07-29T03:24:43;6.10;;;2.50;;
68250;SDS011;55066;51.560;4.642;2023-07-29T03:27:09;4.40;;;2.00;;
68250;SDS011;55066;51.560;4.642;2023-07-29T03:29:35;6.73;;;2.40;;
68250;SDS011;55066;51.560;4.642;2023-07-29T03:32:01;7.03;;;2.50;;
68250;SDS011;55066;51.560;4.642;2023-07-29T03:34:26;5.05;;;2.50;;
68250;SDS011;55066;51.560;4.642;2023-07-29T03:36:52;7.07;;;2.27;;
68250;SDS011;55066;51.560;4.642;2023-07-29T03:39:17;6.65;;;2.30;;
68250;SDS011;55066;51.560;4.642;2023-07-29T03:41:43;6.87;;;2.30;;
68250;SDS011;55066;51.560;4.642;2023-07-29T03:44:08;8.63;;;2.80;;
68250;SDS011;55066;51.560;4.642;2023-07-29T03:46:34;5.27;;;2.20;;
68250;SDS011;55066;51.560;4.642;2023-07-29T03:48:59;5.32;;;2.30;;
68250;SDS011;55066;51.560;4.642;2023-07-29T03:51:25;5.20;;;2.43;;
68250;SDS011;55066;51.560;4.642;2023-07-29T03:53:50;5.30;;;2.10;;
68250;SDS011;55066;51.560;4.642;2023-07-29T03:56:16;5.80;;;2.40;;
68250;SDS011;55066;51.560;4.642;2023-07-29T03:58:42;5.23;;;2.30;;
68250;SDS011;55066;51.560;4.642;2023-07-29T04:01:08;19.67;;;2.85;;
68250;SDS011;55066;51.560;4.642;2023-07-29T04:03:34;6.67;;;2.30;;
68250;SDS011;55066;51.560;4.642;2023-07-29T04:06:00;5.40;;;2.40;;
68250;SDS011;55066;51.560;4.642;2023-07-29T04:08:26;4.45;;;2.20;;
68250;SDS011;55066;51.560;4.642;2023-07-29T04:10:51;5.27;;;2.30;;
68250;SDS011;55066;51.560;4.642;2023-07-29T04:13:17;4.13;;;1.98;;
68250;SDS011;55066;51.560;4.642;2023-07-29T04:15:43;5.63;;;2.40;;
68250;SDS011;55066;51.560;4.642;2023-07-29T04:18:08;5.37;;;2.33;;
68250;SDS011;55066;51.560;4.642;2023-07-29T04:20:34;5.30;;;2.17;;
68250;SDS011;55066;51.560;4.642;2023-07-29T04:23:00;6.10;;;2.22;;
68250;SDS011;55066;51.560;4.642;2023-07-29T04:25:25;6.30;;;2.37;;
68250;SDS011;55066;51.560;4.642;2023-07-29T04:27:50;6.07;;;2.20;;
68250;SDS011;55066;51.560;4.642;2023-07-29T04:30:16;6.83;;;2.37;;
68250;SDS011;55066;51.560;4.642;2023-07-29T04:32:41;5.65;;;2.10;;
68250;SDS011;55066;51.560;4.642;2023-07-29T04:35:08;5.20;;;2.13;;
68250;SDS011;55066;51.560;4.642;2023-07-29T04:37:35;4.47;;;2.38;;
68250;SDS011;55066;51.560;4.642;2023-07-29T04:40:01;5.80;;;2.30;;
68250;SDS011;55066;51.560;4.642;2023-07-29T04:42:27;5.68;;;2.15;;
68250;SDS011;55066;51.560;4.642;2023-07-29T04:44:53;5.30;;;2.33;;
68250;SDS011;55066;51.560;4.642;2023-07-29T04:47:18;4.70;;;2.03;;
68250;SDS011;55066;51.560;4.642;2023-07-29T04:49:44;5.55;;;2.22;;
68250;SDS011;55066;51.560;4.642;2023-07-29T04:52:09;5.17;;;2.40;;
68250;SDS011;55066;51.560;4.642;2023-07-29T04:54:34;5.40;;;2.20;;
68250;SDS011;55066;51.560;4.642;2023-07-29T04:57:00;4.67;;;2.10;;
68250;SDS011;55066;51.560;4.642;2023-07-29T04:59:26;5.40;;;2.42;;
68250;SDS011;55066;51.560;4.642;2023-07-29T05:01:53;7.60;;;2.42;;
68250;SDS011;55066;51.560;4.642;2023-07-29T05:04:19;4.83;;;2.30;;
68250;SDS011;55066;51.560;4.642;2023-07-29T05:06:44;5.45;;;2.50;;
68250;SDS011;55066;51.560;4.642;2023-07-29T05:09:16;4.50;;;2.10;;
68250;SDS011;55066;51.560;4.642;2023-07-29T05:11:43;7.28;;;2.10;;
68250;SDS011;55066;51.560;4.642;2023-07-29T05:14:13;8.00;;;2.07;;
68250;SDS011;55066;51.560;4.642;2023-07-29T05:16:38;4.72;;;2.15;;
68250;SDS011;55066;51.560;4.642;2023-07-29T05:19:04;8.30;;;2.10;;
68250;SDS011;55066;51.560;4.642;2023-07-29T05:21:29;6.77;;;2.23;;
68250;SDS011;55066;51.560;4.642;2023-07-29T05:23:55;4.80;;;2.33;;
68250;SDS011;55066;51.560;4.642;2023-07-29T05:26:21;5.93;;;2.45;;
68250;SDS011;55066;51.560;4.642;2023-07-29T05:28:47;9.50;;;2.67;;
68250;SDS011;55066;51.560;4.642;2023-07-29T05:31:12;7.47;;;2.40;;
68250;SDS011;55066;51.560;4.642;2023-07-29T05:33:38;8.63;;;2.20;;
68250;SDS011;55066;51.560;4.642;2023-07-29T05:36:05;7.18;;;2.40;;
68250;SDS011;55066;51.560;4.642;2023-07-29T05:38:30;5.63;;;2.30;;
68250;SDS011;55066;51.560;4.642;2023-07-29T05:40:56;5.18;;;2.30;;
68250;SDS011;55066;51.560;4.642;2023-07-29T05:43:23;5.10;;;2.37;;
68250;SDS011;55066;51.560;4.642;2023-07-29T05:45:49;5.60;;;2.03;;
68250;SDS011;55066;51.560;4.642;2023-07-29T05:48:16;6.07;;;2.25;;
68250;SDS011;55066;51.560;4.642;2023-07-29T05:50:43;8.17;;;2.40;;
68250;SDS011;55066;51.560;4.642;2023-07-29T05:53:09;5.75;;;2.40;;
68250;SDS011;55066;51.560;4.642;2023-07-29T05:55:34;7.60;;;2.33;;
68250;SDS011;55066;51.560;4.642;2023-07-29T05:57:59;6.87;;;2.83;;
68250;SDS011;55066;51.560;4.642;2023-07-29T06:00:25;7.18;;;2.83;;
68250;SDS011;55066;51.560;4.642;2023-07-29T06:02:51;5.60;;;2.30;;
68250;SDS011;55066;51.560;4.642;2023-07-29T06:05:20;5.75;;;2.35;;
68250;SDS011;55066;51.560;4.642;2023-07-29T06:07:45;7.30;;;2.37;;
68250;SDS011;55066;51.560;4.642;2023-07-29T06:10:13;5.85;;;2.50;;
68250;SDS011;55066;51.560;4.642;2023-07-29T06:12:42;7.38;;;2.38;;
68250;SDS011;55066;51.560;4.642;2023-07-29T06:15:08;6.27;;;2.43;;
68250;SDS011;55066;51.560;4.642;2023-07-29T06:17:34;4.67;;;2.30;;
68250;SDS011;55066;51.560;4.642;2023-07-29T06:20:00;7.22;;;2.30;;
68250;SDS011;55066;51.560;4.642;2023-07-29T06:22:25;6.37;;;2.23;;
68250;SDS011;55066;51.560;4.642;2023-07-29T06:24:51;5.05;;;2.20;;
68250;SDS011;55066;51.560;4.642;2023-07-29T06:27:16;6.17;;;2.50;;
68250;SDS011;55066;51.560;4.642;2023-07-29T06:29:42;7.30;;;2.30;;
68250;SDS011;55066;51.560;4.642;2023-07-29T06:32:08;7.00;;;2.50;;
68250;SDS011;55066;51.560;4.642;2023-07-29T06:34:34;4.80;;;2.15;;
68250;SDS011;55066;51.560;4.642;2023-07-29T06:36:59;6.13;;;2.47;;
68250;SDS011;55066;51.560;4.642;2023-07-29T06:39:25;5.23;;;2.30;;
68250;SDS011;55066;51.560;4.642;2023-07-29T06:41:50;6.43;;;2.20;;
68250;SDS011;55066;51.560;4.642;2023-07-29T06:44:17;7.78;;;2.42;;
68250;SDS011;55066;51.560;4.642;2023-07-29T06:46:42;4.90;;;2.03;;
68250;SDS011;55066;51.560;4.642;2023-07-29T06:49:08;8.00;;;2.50;;
68250;SDS011;55066;51.560;4.642;2023-07-29T06:51:33;5.77;;;2.10;;
68250;SDS011;55066;51.560;4.642;2023-07-29T06:54:00;8.13;;;2.50;;
68250;SDS011;55066;51.560;4.642;2023-07-29T06:56:27;7.28;;;2.17;;
68250;SDS011;55066;51.560;4.642;2023-07-29T06:58:52;5.77;;;2.10;;
68250;SDS011;55066;51.560;4.642;2023-07-29T07:01:18;5.47;;;2.00;;
68250;SDS011;55066;51.560;4.642;2023-07-29T07:03:43;3.92;;;2.13;;
68250;SDS011;55066;51.560;4.642;2023-07-29T07:06:09;6.20;;;2.20;;
68250;SDS011;55066;51.560;4.642;2023-07-29T07:08:34;5.80;;;2.20;;
68250;SDS011;55066;51.560;4.642;2023-07-29T07:11:00;5.35;;;1.85;;
68250;SDS011;55066;51.560;4.642;2023-07-29T07:13:25;4.73;;;1.40;;
68250;SDS011;55066;51.560;4.642;2023-07-29T07:15:53;4.80;;;1.83;;
68250;SDS011;55066;51.560;4.642;2023-07-29T07:18:20;6.97;;;1.83;;
68250;SDS011;55066;51.560;4.642;2023-07-29T07:20:50;3.53;;;1.60;;
68250;SDS011;55066;51.560;4.642;2023-07-29T07:23:16;4.53;;;1.65;;
68250;SDS011;55066;51.560;4.642;2023-07-29T07:25:42;4.90;;;1.80;;
68250;SDS011;55066;51.560;4.642;2023-07-29T07:28:08;4.32;;;1.67;;
68250;SDS011;55066;51.560;4.642;2023-07-29T07:30:34;4.68;;;2.08;;
68250;SDS011;55066;51.560;4.642;2023-07-29T07:33:00;5.93;;;2.00;;
68250;SDS011;55066;51.560;4.642;2023-07-29T07:35:25;4.97;;;1.50;;
68250;SDS011;55066;51.560;4.642;2023-07-29T07:37:51;3.40;;;1.80;;
68250;SDS011;55066;51.560;4.642;2023-07-29T07:40:16;6.07;;;1.90;;
68250;SDS011;55066;51.560;4.642;2023-07-29T07:42:42;4.10;;;1.90;;
68250;SDS011;55066;51.560;4.642;2023-07-29T07:45:07;6.00;;;1.70;;
68250;SDS011;55066;51.560;4.642;2023-07-29T07:47:33;3.67;;;1.90;;
68250;SDS011;55066;51.560;4.642;2023-07-29T07:49:58;2.83;;;1.53;;
68250;SDS011;55066;51.560;4.642;2023-07-29T07:52:24;4.63;;;1.83;;
68250;SDS011;55066;51.560;4.642;2023-07-29T07:54:52;4.38;;;2.20;;
68250;SDS011;55066;51.560;4.642;2023-07-29T07:57:22;5.53;;;2.20;;
68250;SDS011;55066;51.560;4.642;2023-07-29T07:59:48;6.30;;;2.78;;
68250;SDS011;55066;51.560;4.642;2023-07-29T08:02:13;5.68;;;2.70;;
68250;SDS011;55066;51.560;4.642;2023-07-29T08:04:39;4.87;;;2.17;;
68250;SDS011;55066;51.560;4.642;2023-07-29T08:07:05;5.80;;;2.23;;
68250;SDS011;55066;51.560;4.642;2023-07-29T08:09:30;9.23;;;2.30;;
68250;SDS011;55066;51.560;4.642;2023-07-29T08:11:57;4.63;;;2.25;;
68250;SDS011;55066;51.560;4.642;2023-07-29T08:14:22;6.90;;;2.83;;
68250;SDS011;55066;51.560;4.642;2023-07-29T08:16:48;6.00;;;2.40;;
68250;SDS011;55066;51.560;4.642;2023-07-29T08:19:13;7.63;;;2.80;;
68250;SDS011;55066;51.560;4.642;2023-07-29T08:21:39;6.28;;;2.30;;
68250;SDS011;55066;51.560;4.642;2023-07-29T08:24:05;4.53;;;2.40;;
68250;SDS011;55066;51.560;4.642;2023-07-29T08:26:32;6.90;;;2.38;;
68250;SDS011;55066;51.560;4.642;2023-07-29T08:28:57;4.37;;;2.27;;
68250;SDS011;55066;51.560;4.642;2023-07-29T08:31:23;4.03;;;1.90;;
68250;SDS011;55066;51.560;4.642;2023-07-29T08:33:48;4.70;;;1.97;;
68250;SDS011;55066;51.560;4.642;2023-07-29T08:36:14;4.80;;;1.87;;
68250;SDS011;55066;51.560;4.642;2023-07-29T08:38:39;4.10;;;2.05;;
68250;SDS011;55066;51.560;4.642;2023-07-29T08:44:16;2.80;;;1.30;;
68250;SDS011;55066;51.560;4.642;2023-07-29T08:46:45;4.47;;;1.60;;
68250;SDS011;55066;51.560;4.642;2023-07-29T08:49:11;3.63;;;1.70;;
68250;SDS011;55066;51.560;4.642;2023-07-29T08:51:39;3.50;;;1.67;;
68250;SDS011;55066;51.560;4.642;2023-07-29T08:54:06;4.53;;;1.50;;
68250;SDS011;55066;51.560;4.642;2023-07-29T08:56:33;3.58;;;1.45;;
68250;SDS011;55066;51.560;4.642;2023-07-29T08:58:59;4.15;;;1.52;;
68250;SDS011;55066;51.560;4.642;2023-07-29T09:01:27;5.95;;;1.50;;
68250;SDS011;55066;51.560;4.642;2023-07-29T09:03:53;2.72;;;1.50;;
68250;SDS011;55066;51.560;4.642;2023-07-29T09:06:18;3.63;;;1.43;;
68250;SDS011;55066;51.560;4.642;2023-07-29T09:08:46;3.65;;;1.40;;
68250;SDS011;55066;51.560;4.642;2023-07-29T09:11:14;2.70;;;1.48;;
68250;SDS011;55066;51.560;4.642;2023-07-29T09:13:42;3.53;;;1.50;;
68250;SDS011;55066;51.560;4.642;2023-07-29T09:16:08;3.10;;;1.40;;
68250;SDS011;55066;51.560;4.642;2023-07-29T09:18:34;2.88;;;1.45;;
68250;SDS011;55066;51.560;4.642;2023-07-29T09:20:59;2.73;;;1.37;;
68250;SDS011;55066;51.560;4.642;2023-07-29T09:23:32;2.67;;;1.42;;
68250;SDS011;55066;51.560;4.642;2023-07-29T09:26:04;2.72;;;1.30;;
68250;SDS011;55066;51.560;4.642;2023-07-29T09:28:32;2.90;;;1.50;;
68250;SDS011;55066;51.560;4.642;2023-07-29T09:31:03;4.60;;;1.50;;
68250;SDS011;55066;51.560;4.642;2023-07-29T09:33:29;3.25;;;1.60;;
68250;SDS011;55066;51.560;4.642;2023-07-29T09:36:00;7.07;;;1.67;;
68250;SDS011;55066;51.560;4.642;2023-07-29T09:38:28;3.55;;;1.60;;
68250;SDS011;55066;51.560;4.642;2023-07-29T09:40:57;2.90;;;1.70;;
68250;SDS011;55066;51.560;4.642;2023-07-29T09:43:29;4.30;;;1.80;;
68250;SDS011;55066;51.560;4.642;2023-07-29T09:45:58;4.70;;;1.80;;
68250;SDS011;55066;51.560;4.642;2023-07-29T09:48:25;3.92;;;2.10;;
68250;SDS011;55066;51.560;4.642;2023-07-29T09:50:51;3.83;;;2.23;;
68250;SDS011;55066;51.560;4.642;2023-07-29T09:53:16;6.03;;;2.70;;
68250;SDS011;55066;51.560;4.642;2023-07-29T09:55:45;6.97;;;2.70;;
68250;SDS011;55066;51.560;4.642;2023-07-29T09:58:19;6.07;;;2.58;;
68250;SDS011;55066;51.560;4.642;2023-07-29T10:00:50;4.35;;;2.63;;
68250;SDS011;55066;51.560;4.642;2023-07-29T10:03:16;4.30;;;2.78;;
68250;SDS011;55066;51.560;4.642;2023-07-29T10:05:43;4.00;;;2.40;;
68250;SDS011;55066;51.560;4.642;2023-07-29T10:08:10;5.78;;;2.45;;
68250;SDS011;55066;51.560;4.642;2023-07-29T10:10:36;4.40;;;2.00;;
68250;SDS011;55066;51.560;4.642;2023-07-29T10:13:01;4.57;;;2.10;;
68250;SDS011;55066;51.560;4.642;2023-07-29T10:15:28;5.38;;;2.13;;
68250;SDS011;55066;51.560;4.642;2023-07-29T10:17:54;3.90;;;2.40;;
68250;SDS011;55066;51.560;4.642;2023-07-29T10:20:20;3.30;;;1.97;;
68250;SDS011;55066;51.560;4.642;2023-07-29T10:22:46;4.18;;;1.88;;
68250;SDS011;55066;51.560;4.642;2023-07-29T10:25:22;5.97;;;2.50;;
68250;SDS011;55066;51.560;4.642;2023-07-29T10:27:49;4.13;;;2.50;;
68250;SDS011;55066;51.560;4.642;2023-07-29T10:30:32;4.47;;;2.50;;
68250;SDS011;55066;51.560;4.642;2023-07-29T10:32:58;6.07;;;2.42;;
68250;SDS011;55066;51.560;4.642;2023-07-29T10:35:27;5.55;;;2.90;;
68250;SDS011;55066;51.560;4.642;2023-07-29T10:37:53;4.65;;;2.72;;
68250;SDS011;55066;51.560;4.642;2023-07-29T10:40:19;5.83;;;2.70;;
68250;SDS011;55066;51.560;4.642;2023-07-29T10:45:39;5.25;;;3.40;;
68250;SDS011;55066;51.560;4.642;2023-07-29T10:48:07;6.05;;;3.30;;
68250;SDS011;55066;51.560;4.642;2023-07-29T10:50:36;11.33;;;3.00;;
68250;SDS011;55066;51.560;4.642;2023-07-29T10:53:02;6.93;;;3.40;;
68250;SDS011;55066;51.560;4.642;2023-07-29T10:58:05;5.47;;;2.80;;
68250;SDS011;55066;51.560;4.642;2023-07-29T11:00:32;5.00;;;2.60;;
68250;SDS011;55066;51.560;4.642;2023-07-29T11:02:59;6.03;;;2.67;;
68250;SDS011;55066;51.560;4.642;2023-07-29T11:05:27;11.50;;;2.97;;
68250;SDS011;55066;51.560;4.642;2023-07-29T11:11:07;37.03;;;4.47;;
68250;SDS011;55066;51.560;4.642;2023-07-29T11:13:33;6.40;;;2.87;;
68250;SDS011;55066;51.560;4.642;2023-07-29T11:16:00;7.70;;;2.75;;
68250;SDS011;55066;51.560;4.642;2023-07-29T11:18:27;4.10;;;2.38;;
68250;SDS011;55066;51.560;4.642;2023-07-29T11:20:55;4.13;;;2.38;;
68250;SDS011;55066;51.560;4.642;2023-07-29T11:23:26;4.03;;;2.67;;
68250;SDS011;55066;51.560;4.642;2023-07-29T11:25:59;6.17;;;2.50;;
68250;SDS011;55066;51.560;4.642;2023-07-29T11:28:25;4.65;;;2.58;;
68250;SDS011;55066;51.560;4.642;2023-07-29T11:30:51;4.22;;;2.22;;
68250;SDS011;55066;51.560;4.642;2023-07-29T11:33:22;5.07;;;2.43;;
68250;SDS011;55066;51.560;4.642;2023-07-29T11:35:49;6.32;;;2.78;;
68250;SDS011;55066;51.560;4.642;2023-07-29T11:38:19;6.10;;;2.40;;
68250;SDS011;55066;51.560;4.642;2023-07-29T11:40:55;6.13;;;2.65;;
68250;SDS011;55066;51.560;4.642;2023-07-29T11:43:22;4.47;;;2.80;;
68250;SDS011;55066;51.560;4.642;2023-07-29T11:45:47;6.37;;;3.00;;
68250;SDS011;55066;51.560;4.642;2023-07-29T11:48:12;7.30;;;2.70;;
68250;SDS011;55066;51.560;4.642;2023-07-29T11:50:38;6.20;;;3.40;;
68250;SDS011;55066;51.560;4.642;2023-07-29T11:53:03;5.80;;;3.53;;
68250;SDS011;55066;51.560;4.642;2023-07-29T11:55:30;6.13;;;3.65;;
68250;SDS011;55066;51.560;4.642;2023-07-29T11:57:55;7.43;;;3.70;;
68250;SDS011;55066;51.560;4.642;2023-07-29T12:00:22;5.93;;;3.38;;
68250;SDS011;55066;51.560;4.642;2023-07-29T12:02:47;6.87;;;4.07;;
68250;SDS011;55066;51.560;4.642;2023-07-29T12:05:14;8.80;;;4.57;;
68250;SDS011;55066;51.560;4.642;2023-07-29T12:07:41;9.75;;;4.15;;
68250;SDS011;55066;51.560;4.642;2023-07-29T12:10:07;11.43;;;4.53;;
68250;SDS011;55066;51.560;4.642;2023-07-29T12:12:43;8.60;;;3.80;;
68250;SDS011;55066;51.560;4.642;2023-07-29T12:15:10;6.72;;;2.80;;
68250;SDS011;55066;51.560;4.642;2023-07-29T12:17:41;3.93;;;1.90;;
68250;SDS011;55066;51.560;4.642;2023-07-29T12:20:10;4.55;;;2.40;;
68250;SDS011;55066;51.560;4.642;2023-07-29T12:22:36;2.92;;;1.52;;
68250;SDS011;55066;51.560;4.642;2023-07-29T12:25:01;4.97;;;1.83;;
68250;SDS011;55066;51.560;4.642;2023-07-29T12:27:29;3.28;;;1.80;;
68250;SDS011;55066;51.560;4.642;2023-07-29T12:29:55;4.60;;;2.30;;
68250;SDS011;55066;51.560;4.642;2023-07-29T12:32:20;3.80;;;2.03;;
68250;SDS011;55066;51.560;4.642;2023-07-29T12:34:53;4.47;;;2.40;;
68250;SDS011;55066;51.560;4.642;2023-07-29T12:37:19;5.03;;;2.67;;
68250;SDS011;55066;51.560;4.642;2023-07-29T12:39:44;3.67;;;2.70;;
68250;SDS011;55066;51.560;4.642;2023-07-29T12:42:10;4.77;;;2.70;;
68250;SDS011;55066;51.560;4.642;2023-07-29T12:44:36;4.90;;;2.88;;
68250;SDS011;55066;51.560;4.642;2023-07-29T12:47:03;4.53;;;2.87;;
68250;SDS011;55066;51.560;4.642;2023-07-29T12:49:30;4.30;;;2.47;;
68250;SDS011;55066;51.560;4.642;2023-07-29T12:51:56;5.85;;;3.35;;
68250;SDS011;55066;51.560;4.642;2023-07-29T12:54:22;5.97;;;3.65;;
68250;SDS011;55066;51.560;4.642;2023-07-29T12:56:48;4.97;;;3.07;;
68250;SDS011;55066;51.560;4.642;2023-07-29T12:59:13;6.50;;;3.83;;
68250;SDS011;55066;51.560;4.642;2023-07-29T13:01:39;6.35;;;3.92;;
68250;SDS011;55066;51.560;4.642;2023-07-29T13:04:05;5.07;;;3.07;;
68250;SDS011;55066;51.560;4.642;2023-07-29T13:06:31;7.53;;;4.05;;
68250;SDS011;55066;51.560;4.642;2023-07-29T13:08:56;6.03;;;3.60;;
68250;SDS011;55066;51.560;4.642;2023-07-29T13:11:22;5.73;;;3.07;;
68250;SDS011;55066;51.560;4.642;2023-07-29T13:13:47;7.60;;;3.40;;
68250;SDS011;55066;51.560;4.642;2023-07-29T13:16:13;9.45;;;3.90;;
68250;SDS011;55066;51.560;4.642;2023-07-29T13:18:39;5.50;;;3.00;;
68250;SDS011;55066;51.560;4.642;2023-07-29T13:21:05;4.10;;;2.53;;
68250;SDS011;55066;51.560;4.642;2023-07-29T13:23:31;4.67;;;2.90;;
68250;SDS011;55066;51.560;4.642;2023-07-29T13:25:57;4.30;;;2.60;;
68250;SDS011;55066;51.560;4.642;2023-07-29T13:28:23;10.88;;;2.80;;
68250;SDS011;55066;51.560;4.642;2023-07-29T13:30:48;4.15;;;2.70;;
68250;SDS011;55066;51.560;4.642;2023-07-29T13:33:14;5.70;;;2.90;;
68250;SDS011;55066;51.560;4.642;2023-07-29T13:35:39;5.57;;;3.43;;
68250;SDS011;55066;51.560;4.642;2023-07-29T13:38:05;4.47;;;2.80;;
68250;SDS011;55066;51.560;4.642;2023-07-29T13:40:31;4.65;;;2.78;;
68250;SDS011;55066;51.560;4.642;2023-07-29T13:42:56;5.90;;;3.20;;
68250;SDS011;55066;51.560;4.642;2023-07-29T13:45:22;5.43;;;3.17;;
68250;SDS011;55066;51.560;4.642;2023-07-29T13:47:48;6.57;;;3.20;;
68250;SDS011;55066;51.560;4.642;2023-07-29T13:50:13;6.05;;;3.70;;
68250;SDS011;55066;51.560;4.642;2023-07-29T13:52:39;4.00;;;2.63;;
68250;SDS011;55066;51.560;4.642;2023-07-29T13:55:04;5.00;;;2.87;;
68250;SDS011;55066;51.560;4.642;2023-07-29T13:57:31;4.60;;;2.97;;
68250;SDS011;55066;51.560;4.642;2023-07-29T13:59:57;4.90;;;2.85;;
68250;SDS011;55066;51.560;4.642;2023-07-29T14:02:22;4.63;;;2.90;;
68250;SDS011;55066;51.560;4.642;2023-07-29T14:04:48;4.57;;;2.90;;
68250;SDS011;55066;51.560;4.642;2023-07-29T14:07:13;4.40;;;2.97;;
68250;SDS011;55066;51.560;4.642;2023-07-29T14:09:38;5.17;;;2.87;;
68250;SDS011;55066;51.560;4.642;2023-07-29T14:12:04;7.10;;;3.17;;
68250;SDS011;55066;51.560;4.642;2023-07-29T14:14:30;4.03;;;2.75;;
68250;SDS011;55066;51.560;4.642;2023-07-29T14:16:56;4.47;;;2.75;;
68250;SDS011;55066;51.560;4.642;2023-07-29T14:19:22;4.88;;;2.72;;
68250;SDS011;55066;51.560;4.642;2023-07-29T14:21:48;4.73;;;2.73;;
68250;SDS011;55066;51.560;4.642;2023-07-29T14:24:14;3.50;;;2.22;;
68250;SDS011;55066;51.560;4.642;2023-07-29T14:26:40;4.47;;;2.60;;
68250;SDS011;55066;51.560;4.642;2023-07-29T14:29:06;4.78;;;2.50;;
68250;SDS011;55066;51.560;4.642;2023-07-29T14:31:32;4.07;;;2.67;;
68250;SDS011;55066;51.560;4.642;2023-07-29T14:33:57;5.05;;;2.38;;
68250;SDS011;55066;51.560;4.642;2023-07-29T14:36:23;5.47;;;2.13;;
68250;SDS011;55066;51.560;4.642;2023-07-29T14:38:49;5.68;;;2.33;;
68250;SDS011;55066;51.560;4.642;2023-07-29T14:41:14;7.50;;;2.70;;
68250;SDS011;55066;51.560;4.642;2023-07-29T14:43:39;8.07;;;3.40;;
68250;SDS011;55066;51.560;4.642;2023-07-29T14:46:05;6.83;;;2.90;;
68250;SDS011;55066;51.560;4.642;2023-07-29T14:48:30;5.63;;;2.80;;
68250;SDS011;55066;51.560;4.642;2023-07-29T14:50:56;6.67;;;3.83;;
68250;SDS011;55066;51.560;4.642;2023-07-29T14:53:21;6.20;;;2.50;;
68250;SDS011;55066;51.560;4.642;2023-07-29T14:55:47;5.83;;;2.80;;
68250;SDS011;55066;51.560;4.642;2023-07-29T14:58:12;4.35;;;2.50;;
68250;SDS011;55066;51.560;4.642;2023-07-29T15:00:37;3.87;;;2.57;;